sensor_id;sensor_type;location;lat;lon;timestamp;temperature;humidity
78898;DHT22;70344;44.736;37.800;2023-06-22T00:00:41;23.12;67.71
78898;DHT22;70344;44.736;37.800;2023-06-22T00:01:48;23.11;67.81
78898;DHT22;70344;44.736;37.800;2023-06-22T00:02:51;23.11;67.78
78898;DHT22;70344;44.736;37.800;2023-06-22T00:03:53;23.07;67.86
78898;DHT22;70344;44.736;37.800;2023-06-22T00:04:58;23.08;68.16
78898;DHT22;70344;44.736;37.800;2023-06-22T00:06:00;23.10;67.94
78898;DHT22;70344;44.736;37.800;2023-06-22T00:07:02;23.08;67.94
78898;DHT22;70344;44.736;37.800;2023-06-22T00:08:05;23.07;68.02
78898;DHT22;70344;44.736;37.800;2023-06-22T00:09:14;23.07;68.09
78898;DHT22;70344;44.736;37.800;2023-06-22T00:10:19;23.07;68.02
78898;DHT22;70344;44.736;37.800;2023-06-22T00:11:23;23.03;67.87
78898;DHT22;70344;44.736;37.800;2023-06-22T00:12:29;23.07;67.80
78898;DHT22;70344;44.736;37.800;2023-06-22T00:13:31;23.04;67.74
78898;DHT22;70344;44.736;37.800;2023-06-22T00:14:33;23.06;67.50
78898;DHT22;70344;44.736;37.800;2023-06-22T00:15:39;23.04;67.22
78898;DHT22;70344;44.736;37.800;2023-06-22T00:16:44;23.04;67.21
78898;DHT22;70344;44.736;37.800;2023-06-22T00:17:51;23.04;67.36
78898;DHT22;70344;44.736;37.800;2023-06-22T00:18:55;23.03;67.25
78898;DHT22;70344;44.736;37.800;2023-06-22T00:20:07;23.03;67.28
78898;DHT22;70344;44.736;37.800;2023-06-22T00:21:14;23.01;67.24
78898;DHT22;70344;44.736;37.800;2023-06-22T00:22:19;23.00;67.27
78898;DHT22;70344;44.736;37.800;2023-06-22T00:23:32;22.99;67.14
78898;DHT22;70344;44.736;37.800;2023-06-22T00:24:37;22.99;66.88
78898;DHT22;70344;44.736;37.800;2023-06-22T00:25:39;22.97;66.85
78898;DHT22;70344;44.736;37.800;2023-06-22T00:26:48;22.96;66.52
78898;DHT22;70344;44.736;37.800;2023-06-22T00:27:55;22.97;66.58
78898;DHT22;70344;44.736;37.800;2023-06-22T00:29:04;22.99;66.36
78898;DHT22;70344;44.736;37.800;2023-06-22T00:30:07;22.97;66.29
78898;DHT22;70344;44.736;37.800;2023-06-22T00:31:12;22.99;66.18
78898;DHT22;70344;44.736;37.800;2023-06-22T00:32:16;22.99;66.18
78898;DHT22;70344;44.736;37.800;2023-06-22T00:33:22;22.97;66.16
78898;DHT22;70344;44.736;37.800;2023-06-22T00:34:26;23.00;66.34
78898;DHT22;70344;44.736;37.800;2023-06-22T00:35:28;22.96;66.15
78898;DHT22;70344;44.736;37.800;2023-06-22T00:36:38;22.96;66.24
78898;DHT22;70344;44.736;37.800;2023-06-22T00:37:42;22.92;66.27
78898;DHT22;70344;44.736;37.800;2023-06-22T00:38:44;22.93;66.41
78898;DHT22;70344;44.736;37.800;2023-06-22T00:39:51;22.90;66.17
78898;DHT22;70344;44.736;37.800;2023-06-22T00:40:57;22.89;66.10
78898;DHT22;70344;44.736;37.800;2023-06-22T00:42:06;22.89;66.27
78898;DHT22;70344;44.736;37.800;2023-06-22T00:43:08;22.86;66.46
78898;DHT22;70344;44.736;37.800;2023-06-22T00:44:15;22.86;66.50
78898;DHT22;70344;44.736;37.800;2023-06-22T00:45:17;22.82;66.55
78898;DHT22;70344;44.736;37.800;2023-06-22T00:46:22;22.82;66.23
78898;DHT22;70344;44.736;37.800;2023-06-22T00:47:27;22.82;66.64
78898;DHT22;70344;44.736;37.800;2023-06-22T00:48:32;22.84;66.43
78898;DHT22;70344;44.736;37.800;2023-06-22T00:49:35;22.83;66.45
78898;DHT22;70344;44.736;37.800;2023-06-22T00:50:40;22.82;66.45
78898;DHT22;70344;44.736;37.800;2023-06-22T00:51:42;22.82;66.59
78898;DHT22;70344;44.736;37.800;2023-06-22T00:52:52;22.80;66.43
78898;DHT22;70344;44.736;37.800;2023-06-22T00:54:01;22.82;65.89
78898;DHT22;70344;44.736;37.800;2023-06-22T00:55:08;22.80;65.62
78898;DHT22;70344;44.736;37.800;2023-06-22T00:56:12;22.82;65.82
78898;DHT22;70344;44.736;37.800;2023-06-22T00:57:15;22.82;65.94
78898;DHT22;70344;44.736;37.800;2023-06-22T00:58:19;22.79;66.34
78898;DHT22;70344;44.736;37.800;2023-06-22T00:59:24;22.80;66.25
78898;DHT22;70344;44.736;37.800;2023-06-22T01:00:28;22.77;66.32
78898;DHT22;70344;44.736;37.800;2023-06-22T01:01:40;22.77;66.34
78898;DHT22;70344;44.736;37.800;2023-06-22T01:02:48;22.72;66.57
78898;DHT22;70344;44.736;37.800;2023-06-22T01:03:53;22.73;66.42
78898;DHT22;70344;44.736;37.800;2023-06-22T01:05:04;22.72;66.48
78898;DHT22;70344;44.736;37.800;2023-06-22T01:06:15;22.72;66.47
78898;DHT22;70344;44.736;37.800;2023-06-22T01:10:02;22.66;66.73
78898;DHT22;70344;44.736;37.800;2023-06-22T01:11:26;22.62;66.97
78898;DHT22;70344;44.736;37.800;2023-06-22T01:12:47;22.58;67.16
78898;DHT22;70344;44.736;37.800;2023-06-22T01:15:18;22.53;67.21
78898;DHT22;70344;44.736;37.800;2023-06-22T01:16:29;22.52;67.33
78898;DHT22;70344;44.736;37.800;2023-06-22T01:17:35;22.49;67.50
78898;DHT22;70344;44.736;37.800;2023-06-22T01:18:43;22.45;67.64
78898;DHT22;70344;44.736;37.800;2023-06-22T01:19:54;22.44;67.68
78898;DHT22;70344;44.736;37.800;2023-06-22T01:21:04;22.42;67.68
78898;DHT22;70344;44.736;37.800;2023-06-22T01:22:17;22.44;67.87
78898;DHT22;70344;44.736;37.800;2023-06-22T01:25:15;22.38;68.02
78898;DHT22;70344;44.736;37.800;2023-06-22T01:26:42;22.38;67.99
78898;DHT22;70344;44.736;37.800;2023-06-22T01:28:03;22.37;68.07
78898;DHT22;70344;44.736;37.800;2023-06-22T01:29:13;22.34;68.00
78898;DHT22;70344;44.736;37.800;2023-06-22T01:30:19;22.34;68.02
78898;DHT22;70344;44.736;37.800;2023-06-22T01:31:25;22.34;68.05
78898;DHT22;70344;44.736;37.800;2023-06-22T01:32:35;22.27;68.12
78898;DHT22;70344;44.736;37.800;2023-06-22T01:33:40;22.25;68.27
78898;DHT22;70344;44.736;37.800;2023-06-22T01:34:46;22.24;68.25
78898;DHT22;70344;44.736;37.800;2023-06-22T01:35:49;22.24;68.27
78898;DHT22;70344;44.736;37.800;2023-06-22T01:36:58;22.22;68.30
78898;DHT22;70344;44.736;37.800;2023-06-22T01:38:01;22.20;68.42
78898;DHT22;70344;44.736;37.800;2023-06-22T01:39:06;22.21;68.37
78898;DHT22;70344;44.736;37.800;2023-06-22T01:40:11;22.18;68.44
78898;DHT22;70344;44.736;37.800;2023-06-22T01:41:17;22.17;68.51
78898;DHT22;70344;44.736;37.800;2023-06-22T01:42:25;22.14;68.58
78898;DHT22;70344;44.736;37.800;2023-06-22T01:43:28;22.13;68.52
78898;DHT22;70344;44.736;37.800;2023-06-22T01:44:34;22.15;68.48
78898;DHT22;70344;44.736;37.800;2023-06-22T01:45:36;22.08;68.58
78898;DHT22;70344;44.736;37.800;2023-06-22T01:46:41;22.10;68.54
78898;DHT22;70344;44.736;37.800;2023-06-22T01:47:47;22.07;68.62
78898;DHT22;70344;44.736;37.800;2023-06-22T01:48:50;22.03;68.75
78898;DHT22;70344;44.736;37.800;2023-06-22T01:49:55;22.04;68.94
78898;DHT22;70344;44.736;37.800;2023-06-22T01:50:58;22.08;68.87
78898;DHT22;70344;44.736;37.800;2023-06-22T01:52:03;22.10;68.69
78898;DHT22;70344;44.736;37.800;2023-06-22T01:53:08;22.08;68.82
78898;DHT22;70344;44.736;37.800;2023-06-22T01:54:10;22.08;68.96
78898;DHT22;70344;44.736;37.800;2023-06-22T01:55:12;22.10;68.80
78898;DHT22;70344;44.736;37.800;2023-06-22T01:56:18;22.07;68.80
78898;DHT22;70344;44.736;37.800;2023-06-22T01:57:23;22.08;68.84
78898;DHT22;70344;44.736;37.800;2023-06-22T01:58:27;22.07;68.84
78898;DHT22;70344;44.736;37.800;2023-06-22T01:59:36;22.08;68.88
78898;DHT22;70344;44.736;37.800;2023-06-22T02:00:56;22.10;68.74
78898;DHT22;70344;44.736;37.800;2023-06-22T02:02:09;22.06;68.82
78898;DHT22;70344;44.736;37.800;2023-06-22T02:03:16;22.04;69.01
78898;DHT22;70344;44.736;37.800;2023-06-22T02:04:27;22.07;68.85
78898;DHT22;70344;44.736;37.800;2023-06-22T02:05:45;22.06;68.80
78898;DHT22;70344;44.736;37.800;2023-06-22T02:06:57;22.07;68.72
78898;DHT22;70344;44.736;37.800;2023-06-22T02:09:12;22.06;68.78
78898;DHT22;70344;44.736;37.800;2023-06-22T02:10:20;22.04;68.88
78898;DHT22;70344;44.736;37.800;2023-06-22T02:11:26;21.99;68.98
78898;DHT22;70344;44.736;37.800;2023-06-22T02:12:33;21.96;69.11
78898;DHT22;70344;44.736;37.800;2023-06-22T02:13:37;22.00;69.15
78898;DHT22;70344;44.736;37.800;2023-06-22T02:14:48;22.00;69.16
78898;DHT22;70344;44.736;37.800;2023-06-22T02:15:56;22.00;69.02
78898;DHT22;70344;44.736;37.800;2023-06-22T02:17:08;22.04;69.07
78898;DHT22;70344;44.736;37.800;2023-06-22T02:18:16;22.03;68.97
78898;DHT22;70344;44.736;37.800;2023-06-22T02:19:29;22.00;69.00
78898;DHT22;70344;44.736;37.800;2023-06-22T02:20:38;22.00;68.95
78898;DHT22;70344;44.736;37.800;2023-06-22T02:21:40;21.99;69.07
78898;DHT22;70344;44.736;37.800;2023-06-22T02:22:47;22.00;69.04
78898;DHT22;70344;44.736;37.800;2023-06-22T02:23:52;22.00;69.05
78898;DHT22;70344;44.736;37.800;2023-06-22T02:24:57;21.99;69.06
78898;DHT22;70344;44.736;37.800;2023-06-22T02:26:05;21.99;68.93
78898;DHT22;70344;44.736;37.800;2023-06-22T02:27:10;22.00;69.11
78898;DHT22;70344;44.736;37.800;2023-06-22T02:28:15;22.03;68.86
78898;DHT22;70344;44.736;37.800;2023-06-22T02:29:17;22.04;68.69
78898;DHT22;70344;44.736;37.800;2023-06-22T02:30:19;22.04;68.62
78898;DHT22;70344;44.736;37.800;2023-06-22T02:31:21;22.06;68.37
78898;DHT22;70344;44.736;37.800;2023-06-22T02:32:34;22.06;68.01
78898;DHT22;70344;44.736;37.800;2023-06-22T02:33:36;22.07;67.84
78898;DHT22;70344;44.736;37.800;2023-06-22T02:34:39;22.07;67.47
78898;DHT22;70344;44.736;37.800;2023-06-22T02:35:41;22.07;66.92
78898;DHT22;70344;44.736;37.800;2023-06-22T02:36:48;22.10;66.23
78898;DHT22;70344;44.736;37.800;2023-06-22T02:37:58;22.11;65.80
78898;DHT22;70344;44.736;37.800;2023-06-22T02:39:02;22.14;65.82
78898;DHT22;70344;44.736;37.800;2023-06-22T02:40:09;22.17;65.99
78898;DHT22;70344;44.736;37.800;2023-06-22T02:41:17;22.15;66.54
78898;DHT22;70344;44.736;37.800;2023-06-22T02:42:24;22.15;66.58
78898;DHT22;70344;44.736;37.800;2023-06-22T02:43:28;22.15;66.22
78898;DHT22;70344;44.736;37.800;2023-06-22T02:44:31;22.14;66.61
78898;DHT22;70344;44.736;37.800;2023-06-22T02:45:37;22.11;66.81
78898;DHT22;70344;44.736;37.800;2023-06-22T02:46:42;22.13;66.84
78898;DHT22;70344;44.736;37.800;2023-06-22T02:47:50;22.13;66.90
78898;DHT22;70344;44.736;37.800;2023-06-22T02:48:52;22.08;66.64
78898;DHT22;70344;44.736;37.800;2023-06-22T02:49:55;22.13;66.70
78898;DHT22;70344;44.736;37.800;2023-06-22T02:51:00;22.10;66.73
78898;DHT22;70344;44.736;37.800;2023-06-22T02:52:09;22.10;66.70
78898;DHT22;70344;44.736;37.800;2023-06-22T02:53:12;22.10;66.58
78898;DHT22;70344;44.736;37.800;2023-06-22T02:54:24;22.10;66.67
78898;DHT22;70344;44.736;37.800;2023-06-22T02:55:29;22.06;66.68
78898;DHT22;70344;44.736;37.800;2023-06-22T02:56:33;22.06;66.90
78898;DHT22;70344;44.736;37.800;2023-06-22T02:57:40;22.04;66.81
78898;DHT22;70344;44.736;37.800;2023-06-22T02:58:46;22.03;66.78
78898;DHT22;70344;44.736;37.800;2023-06-22T02:59:50;22.03;66.52
78898;DHT22;70344;44.736;37.800;2023-06-22T03:00:57;22.06;66.66
78898;DHT22;70344;44.736;37.800;2023-06-22T03:02:10;22.06;66.69
78898;DHT22;70344;44.736;37.800;2023-06-22T03:03:16;22.07;66.50
78898;DHT22;70344;44.736;37.800;2023-06-22T03:04:18;22.08;66.22
78898;DHT22;70344;44.736;37.800;2023-06-22T03:05:23;22.11;66.41
78898;DHT22;70344;44.736;37.800;2023-06-22T03:06:36;22.14;66.25
78898;DHT22;70344;44.736;37.800;2023-06-22T03:07:41;22.15;65.67
78898;DHT22;70344;44.736;37.800;2023-06-22T03:08:47;22.17;65.88
78898;DHT22;70344;44.736;37.800;2023-06-22T03:09:49;22.17;65.77
78898;DHT22;70344;44.736;37.800;2023-06-22T03:10:54;22.18;65.78
78898;DHT22;70344;44.736;37.800;2023-06-22T03:11:56;22.15;65.58
78898;DHT22;70344;44.736;37.800;2023-06-22T03:13:01;22.18;65.51
78898;DHT22;70344;44.736;37.800;2023-06-22T03:14:04;22.20;65.51
78898;DHT22;70344;44.736;37.800;2023-06-22T03:15:12;22.20;65.51
78898;DHT22;70344;44.736;37.800;2023-06-22T03:16:17;22.22;65.48
78898;DHT22;70344;44.736;37.800;2023-06-22T03:17:19;22.22;65.46
78898;DHT22;70344;44.736;37.800;2023-06-22T03:18:26;22.25;65.21
78898;DHT22;70344;44.736;37.800;2023-06-22T03:19:34;22.27;65.25
78898;DHT22;70344;44.736;37.800;2023-06-22T03:20:39;22.31;65.01
78898;DHT22;70344;44.736;37.800;2023-06-22T03:21:44;22.31;64.71
78898;DHT22;70344;44.736;37.800;2023-06-22T03:22:49;22.32;64.83
78898;DHT22;70344;44.736;37.800;2023-06-22T03:23:55;22.34;64.67
78898;DHT22;70344;44.736;37.800;2023-06-22T03:24:58;22.34;64.33
78898;DHT22;70344;44.736;37.800;2023-06-22T03:26:02;22.37;64.46
78898;DHT22;70344;44.736;37.800;2023-06-22T03:27:06;22.38;64.48
78898;DHT22;70344;44.736;37.800;2023-06-22T03:28:10;22.40;64.25
78898;DHT22;70344;44.736;37.800;2023-06-22T03:29:14;22.41;64.13
78898;DHT22;70344;44.736;37.800;2023-06-22T03:30:18;22.44;63.68
78898;DHT22;70344;44.736;37.800;2023-06-22T03:31:25;22.45;64.10
78898;DHT22;70344;44.736;37.800;2023-06-22T03:32:32;22.49;64.22
78898;DHT22;70344;44.736;37.800;2023-06-22T03:33:38;22.49;64.19
78898;DHT22;70344;44.736;37.800;2023-06-22T03:34:43;22.52;64.11
78898;DHT22;70344;44.736;37.800;2023-06-22T03:35:50;22.53;64.31
78898;DHT22;70344;44.736;37.800;2023-06-22T03:36:52;22.56;64.03
78898;DHT22;70344;44.736;37.800;2023-06-22T03:37:58;22.60;64.00
78898;DHT22;70344;44.736;37.800;2023-06-22T03:39:00;22.62;63.97
78898;DHT22;70344;44.736;37.800;2023-06-22T03:40:02;22.63;63.69
78898;DHT22;70344;44.736;37.800;2023-06-22T03:41:11;22.67;63.84
78898;DHT22;70344;44.736;37.800;2023-06-22T03:42:18;22.66;64.00
78898;DHT22;70344;44.736;37.800;2023-06-22T03:43:22;22.70;63.86
78898;DHT22;70344;44.736;37.800;2023-06-22T03:44:30;22.73;63.36
78898;DHT22;70344;44.736;37.800;2023-06-22T03:45:40;22.77;63.34
78898;DHT22;70344;44.736;37.800;2023-06-22T03:46:42;22.77;63.35
78898;DHT22;70344;44.736;37.800;2023-06-22T03:47:50;22.79;63.58
78898;DHT22;70344;44.736;37.800;2023-06-22T03:48:55;22.84;63.22
78898;DHT22;70344;44.736;37.800;2023-06-22T03:50:00;22.86;63.02
78898;DHT22;70344;44.736;37.800;2023-06-22T03:51:05;22.90;63.01
78898;DHT22;70344;44.736;37.800;2023-06-22T03:52:13;22.93;62.69
78898;DHT22;70344;44.736;37.800;2023-06-22T03:53:18;22.97;62.79
78898;DHT22;70344;44.736;37.800;2023-06-22T03:54:20;23.01;62.77
78898;DHT22;70344;44.736;37.800;2023-06-22T03:55:27;23.06;62.75
78898;DHT22;70344;44.736;37.800;2023-06-22T03:56:30;23.08;62.52
78898;DHT22;70344;44.736;37.800;2023-06-22T03:57:33;23.12;62.03
78898;DHT22;70344;44.736;37.800;2023-06-22T03:58:37;23.17;61.88
78898;DHT22;70344;44.736;37.800;2023-06-22T03:59:44;23.21;61.64
78898;DHT22;70344;44.736;37.800;2023-06-22T04:00:47;23.21;60.09
78898;DHT22;70344;44.736;37.800;2023-06-22T04:01:50;23.24;60.92
78898;DHT22;70344;44.736;37.800;2023-06-22T04:02:54;23.27;61.25
78898;DHT22;70344;44.736;37.800;2023-06-22T04:03:57;23.31;61.21
78898;DHT22;70344;44.736;37.800;2023-06-22T04:05:05;23.37;60.59
78898;DHT22;70344;44.736;37.800;2023-06-22T04:06:12;23.37;60.57
78898;DHT22;70344;44.736;37.800;2023-06-22T04:07:16;23.44;60.85
78898;DHT22;70344;44.736;37.800;2023-06-22T04:08:21;23.46;61.07
78898;DHT22;70344;44.736;37.800;2023-06-22T04:09:26;23.49;60.55
78898;DHT22;70344;44.736;37.800;2023-06-22T04:10:29;23.53;59.87
78898;DHT22;70344;44.736;37.800;2023-06-22T04:11:33;23.56;54.83
78898;DHT22;70344;44.736;37.800;2023-06-22T04:12:37;23.59;57.14
78898;DHT22;70344;44.736;37.800;2023-06-22T04:13:43;23.65;58.69
78898;DHT22;70344;44.736;37.800;2023-06-22T04:14:45;23.63;59.35
78898;DHT22;70344;44.736;37.800;2023-06-22T04:15:50;23.67;59.47
78898;DHT22;70344;44.736;37.800;2023-06-22T04:16:52;23.74;57.49
78898;DHT22;70344;44.736;37.800;2023-06-22T04:17:55;23.80;54.89
78898;DHT22;70344;44.736;37.800;2023-06-22T04:19:00;23.86;55.58
78898;DHT22;70344;44.736;37.800;2023-06-22T04:20:03;23.94;56.70
78898;DHT22;70344;44.736;37.800;2023-06-22T04:21:05;23.97;57.35
78898;DHT22;70344;44.736;37.800;2023-06-22T04:22:10;24.04;57.34
78898;DHT22;70344;44.736;37.800;2023-06-22T04:23:15;24.08;57.46
78898;DHT22;70344;44.736;37.800;2023-06-22T04:24:17;24.12;57.51
78898;DHT22;70344;44.736;37.800;2023-06-22T04:25:19;24.18;55.52
78898;DHT22;70344;44.736;37.800;2023-06-22T04:26:22;24.25;57.10
78898;DHT22;70344;44.736;37.800;2023-06-22T04:27:27;24.28;56.33
78898;DHT22;70344;44.736;37.800;2023-06-22T04:28:35;24.32;56.18
78898;DHT22;70344;44.736;37.800;2023-06-22T04:29:37;24.39;56.43
78898;DHT22;70344;44.736;37.800;2023-06-22T04:30:50;24.51;56.99
78898;DHT22;70344;44.736;37.800;2023-06-22T04:31:52;24.57;55.90
78898;DHT22;70344;44.736;37.800;2023-06-22T04:32:57;24.59;54.99
78898;DHT22;70344;44.736;37.800;2023-06-22T04:34:00;24.66;53.44
78898;DHT22;70344;44.736;37.800;2023-06-22T04:35:08;24.70;52.42
78898;DHT22;70344;44.736;37.800;2023-06-22T04:36:14;24.79;52.53
78898;DHT22;70344;44.736;37.800;2023-06-22T04:37:19;24.88;52.12
78898;DHT22;70344;44.736;37.800;2023-06-22T04:38:21;24.94;51.89
78898;DHT22;70344;44.736;37.800;2023-06-22T04:39:23;25.04;52.76
78898;DHT22;70344;44.736;37.800;2023-06-22T04:40:26;25.11;52.43
78898;DHT22;70344;44.736;37.800;2023-06-22T04:41:37;25.18;52.70
78898;DHT22;70344;44.736;37.800;2023-06-22T04:42:47;25.29;51.76
78898;DHT22;70344;44.736;37.800;2023-06-22T04:43:55;25.43;51.33
78898;DHT22;70344;44.736;37.800;2023-06-22T04:45:05;25.57;51.12
78898;DHT22;70344;44.736;37.800;2023-06-22T04:46:07;25.70;51.16
78898;DHT22;70344;44.736;37.800;2023-06-22T04:47:09;25.76;51.26
78898;DHT22;70344;44.736;37.800;2023-06-22T04:48:14;25.85;52.02
78898;DHT22;70344;44.736;37.800;2023-06-22T04:49:23;25.94;52.42
78898;DHT22;70344;44.736;37.800;2023-06-22T04:50:38;25.97;48.77
78898;DHT22;70344;44.736;37.800;2023-06-22T04:51:42;25.95;48.93
78898;DHT22;70344;44.736;37.800;2023-06-22T04:52:44;26.02;49.23
78898;DHT22;70344;44.736;37.800;2023-06-22T04:53:48;26.05;48.63
78898;DHT22;70344;44.736;37.800;2023-06-22T04:54:50;26.14;49.84
78898;DHT22;70344;44.736;37.800;2023-06-22T04:55:59;26.28;51.46
78898;DHT22;70344;44.736;37.800;2023-06-22T04:57:06;26.36;50.13
78898;DHT22;70344;44.736;37.800;2023-06-22T04:58:12;26.42;48.74
78898;DHT22;70344;44.736;37.800;2023-06-22T04:59:14;26.56;48.35
78898;DHT22;70344;44.736;37.800;2023-06-22T05:00:18;26.60;48.81
78898;DHT22;70344;44.736;37.800;2023-06-22T05:01:28;26.73;49.14
78898;DHT22;70344;44.736;37.800;2023-06-22T05:02:32;26.86;49.26
78898;DHT22;70344;44.736;37.800;2023-06-22T05:03:34;26.97;48.24
78898;DHT22;70344;44.736;37.800;2023-06-22T05:04:39;27.02;48.10
78898;DHT22;70344;44.736;37.800;2023-06-22T05:05:41;26.98;48.73
78898;DHT22;70344;44.736;37.800;2023-06-22T05:06:43;27.05;49.38
78898;DHT22;70344;44.736;37.800;2023-06-22T05:07:52;27.16;48.70
78898;DHT22;70344;44.736;37.800;2023-06-22T05:08:57;27.25;47.77
78898;DHT22;70344;44.736;37.800;2023-06-22T05:10:05;27.36;47.13
78898;DHT22;70344;44.736;37.800;2023-06-22T05:11:07;27.45;44.69
78898;DHT22;70344;44.736;37.800;2023-06-22T05:12:11;27.40;45.52
78898;DHT22;70344;44.736;37.800;2023-06-22T05:13:16;27.49;46.56
78898;DHT22;70344;44.736;37.800;2023-06-22T05:14:18;27.57;46.40
78898;DHT22;70344;44.736;37.800;2023-06-22T05:15:21;27.67;45.77
78898;DHT22;70344;44.736;37.800;2023-06-22T05:16:31;27.77;45.81
78898;DHT22;70344;44.736;37.800;2023-06-22T05:17:33;27.91;46.40
78898;DHT22;70344;44.736;37.800;2023-06-22T05:18:41;27.92;45.00
78898;DHT22;70344;44.736;37.800;2023-06-22T05:19:48;27.85;44.98
78898;DHT22;70344;44.736;37.800;2023-06-22T05:20:55;27.87;45.68
78898;DHT22;70344;44.736;37.800;2023-06-22T05:21:58;28.04;45.88
78898;DHT22;70344;44.736;37.800;2023-06-22T05:23:02;28.16;44.99
78898;DHT22;70344;44.736;37.800;2023-06-22T05:24:09;28.27;45.93
78898;DHT22;70344;44.736;37.800;2023-06-22T05:25:16;28.35;44.87
78898;DHT22;70344;44.736;37.800;2023-06-22T05:26:22;28.39;45.21
78898;DHT22;70344;44.736;37.800;2023-06-22T05:27:29;28.49;46.15
78898;DHT22;70344;44.736;37.800;2023-06-22T05:28:32;28.54;44.02
78898;DHT22;70344;44.736;37.800;2023-06-22T05:29:37;28.60;44.82
78898;DHT22;70344;44.736;37.800;2023-06-22T05:30:42;28.72;45.10
78898;DHT22;70344;44.736;37.800;2023-06-22T05:31:44;28.90;44.58
78898;DHT22;70344;44.736;37.800;2023-06-22T05:32:49;29.03;44.77
78898;DHT22;70344;44.736;37.800;2023-06-22T05:33:54;29.12;43.43
78898;DHT22;70344;44.736;37.800;2023-06-22T05:34:59;29.12;44.98
78898;DHT22;70344;44.736;37.800;2023-06-22T05:36:03;29.19;44.99
78898;DHT22;70344;44.736;37.800;2023-06-22T05:37:08;29.23;44.03
78898;DHT22;70344;44.736;37.800;2023-06-22T05:38:13;29.30;44.71
78898;DHT22;70344;44.736;37.800;2023-06-22T05:39:18;29.34;44.97
78898;DHT22;70344;44.736;37.800;2023-06-22T05:40:22;29.47;42.64
78898;DHT22;70344;44.736;37.800;2023-06-22T05:41:28;29.51;42.38
78898;DHT22;70344;44.736;37.800;2023-06-22T05:42:32;29.60;42.13
78898;DHT22;70344;44.736;37.800;2023-06-22T05:43:37;29.54;42.94
78898;DHT22;70344;44.736;37.800;2023-06-22T05:44:42;29.55;43.25
78898;DHT22;70344;44.736;37.800;2023-06-22T05:45:46;29.62;44.04
78898;DHT22;70344;44.736;37.800;2023-06-22T05:46:48;29.78;43.35
78898;DHT22;70344;44.736;37.800;2023-06-22T05:47:54;29.89;43.64
78898;DHT22;70344;44.736;37.800;2023-06-22T05:48:56;29.92;42.97
78898;DHT22;70344;44.736;37.800;2023-06-22T05:50:05;29.93;42.87
78898;DHT22;70344;44.736;37.800;2023-06-22T05:51:08;30.05;42.72
78898;DHT22;70344;44.736;37.800;2023-06-22T05:52:11;30.05;40.95
78898;DHT22;70344;44.736;37.800;2023-06-22T05:53:15;29.96;42.18
78898;DHT22;70344;44.736;37.800;2023-06-22T05:54:20;30.06;42.23
78898;DHT22;70344;44.736;37.800;2023-06-22T05:55:25;30.13;42.17
78898;DHT22;70344;44.736;37.800;2023-06-22T05:56:29;30.17;42.81
78898;DHT22;70344;44.736;37.800;2023-06-22T05:57:33;30.19;41.61
78898;DHT22;70344;44.736;37.800;2023-06-22T05:58:40;30.22;41.45
78898;DHT22;70344;44.736;37.800;2023-06-22T05:59:42;30.26;40.07
78898;DHT22;70344;44.736;37.800;2023-06-22T06:00:47;30.27;40.49
78898;DHT22;70344;44.736;37.800;2023-06-22T06:01:53;30.30;40.62
78898;DHT22;70344;44.736;37.800;2023-06-22T06:03:00;30.31;40.82
78898;DHT22;70344;44.736;37.800;2023-06-22T06:04:05;30.30;41.15
78898;DHT22;70344;44.736;37.800;2023-06-22T06:05:14;30.34;40.72
78898;DHT22;70344;44.736;37.800;2023-06-22T06:06:17;30.33;41.68
78898;DHT22;70344;44.736;37.800;2023-06-22T06:07:25;30.40;41.44
78898;DHT22;70344;44.736;37.800;2023-06-22T06:08:31;30.37;41.25
78898;DHT22;70344;44.736;37.800;2023-06-22T06:09:33;30.27;41.77
78898;DHT22;70344;44.736;37.800;2023-06-22T06:10:37;30.40;41.77
78898;DHT22;70344;44.736;37.800;2023-06-22T06:11:45;30.53;41.76
78898;DHT22;70344;44.736;37.800;2023-06-22T06:12:50;30.51;43.14
78898;DHT22;70344;44.736;37.800;2023-06-22T06:13:52;30.60;42.62
78898;DHT22;70344;44.736;37.800;2023-06-22T06:14:54;30.72;41.61
78898;DHT22;70344;44.736;37.800;2023-06-22T06:16:01;30.69;41.78
78898;DHT22;70344;44.736;37.800;2023-06-22T06:17:06;30.72;41.11
78898;DHT22;70344;44.736;37.800;2023-06-22T06:18:11;30.79;41.94
78898;DHT22;70344;44.736;37.800;2023-06-22T06:19:13;30.89;41.59
78898;DHT22;70344;44.736;37.800;2023-06-22T06:20:21;31.06;41.55
78898;DHT22;70344;44.736;37.800;2023-06-22T06:21:29;31.16;41.59
78898;DHT22;70344;44.736;37.800;2023-06-22T06:22:36;31.23;41.84
78898;DHT22;70344;44.736;37.800;2023-06-22T06:23:41;31.33;41.24
78898;DHT22;70344;44.736;37.800;2023-06-22T06:24:43;31.50;40.48
78898;DHT22;70344;44.736;37.800;2023-06-22T06:25:48;31.37;42.38
78898;DHT22;70344;44.736;37.800;2023-06-22T06:26:52;31.43;40.49
78898;DHT22;70344;44.736;37.800;2023-06-22T06:27:54;31.33;39.29
78898;DHT22;70344;44.736;37.800;2023-06-22T06:29:00;31.20;40.55
78898;DHT22;70344;44.736;37.800;2023-06-22T06:30:02;31.22;41.05
78898;DHT22;70344;44.736;37.800;2023-06-22T06:31:09;31.33;40.49
78898;DHT22;70344;44.736;37.800;2023-06-22T06:32:14;31.38;40.82
78898;DHT22;70344;44.736;37.800;2023-06-22T06:33:19;31.50;40.82
78898;DHT22;70344;44.736;37.800;2023-06-22T06:34:26;31.60;40.24
78898;DHT22;70344;44.736;37.800;2023-06-22T06:35:28;31.72;40.82
78898;DHT22;70344;44.736;37.800;2023-06-22T06:36:42;31.88;39.81
78898;DHT22;70344;44.736;37.800;2023-06-22T06:37:48;31.93;39.39
78898;DHT22;70344;44.736;37.800;2023-06-22T06:38:53;32.03;37.51
78898;DHT22;70344;44.736;37.800;2023-06-22T06:39:55;31.97;37.72
78898;DHT22;70344;44.736;37.800;2023-06-22T06:41:03;31.86;39.01
78898;DHT22;70344;44.736;37.800;2023-06-22T06:42:10;31.68;39.68
78898;DHT22;70344;44.736;37.800;2023-06-22T06:43:13;31.74;39.58
78898;DHT22;70344;44.736;37.800;2023-06-22T06:44:17;31.88;38.66
78898;DHT22;70344;44.736;37.800;2023-06-22T06:45:23;31.90;38.22
78898;DHT22;70344;44.736;37.800;2023-06-22T06:46:30;32.01;37.49
78898;DHT22;70344;44.736;37.800;2023-06-22T06:47:35;32.09;37.56
78898;DHT22;70344;44.736;37.800;2023-06-22T06:48:39;32.13;38.17
78898;DHT22;70344;44.736;37.800;2023-06-22T06:49:46;32.05;38.32
78898;DHT22;70344;44.736;37.800;2023-06-22T06:50:53;32.10;38.43
78898;DHT22;70344;44.736;37.800;2023-06-22T06:51:56;32.21;38.33
78898;DHT22;70344;44.736;37.800;2023-06-22T06:52:58;32.33;37.68
78898;DHT22;70344;44.736;37.800;2023-06-22T06:54:03;32.36;39.23
78898;DHT22;70344;44.736;37.800;2023-06-22T06:55:06;32.36;38.72